createdAt,value
2019-06-15T00:03:41.359Z,13
2019-06-15T00:08:43.803Z,12
2019-06-15T00:13:46.271Z,13
2019-06-15T00:18:48.725Z,18
2019-06-15T00:23:51.234Z,14
2019-06-15T00:28:53.674Z,16
2019-06-15T00:33:56.153Z,14
2019-06-15T00:38:58.712Z,19
2019-06-15T00:44:01.030Z,16
2019-06-15T00:49:03.483Z,16
2019-06-15T00:54:06.026Z,15
2019-06-15T00:59:08.455Z,15
2019-06-15T01:04:10.904Z,17
2019-06-15T01:09:13.344Z,15
2019-06-15T01:14:15.759Z,16
2019-06-15T01:19:18.256Z,16
2019-06-15T01:24:20.672Z,16
2019-06-15T01:29:23.226Z,19
2019-06-15T01:34:25.599Z,26
2019-06-15T01:39:28.061Z,17
2019-06-15T01:44:30.537Z,19
2019-06-15T01:49:33.031Z,17
2019-06-15T01:54:35.445Z,24
2019-06-15T01:59:38.169Z,18
2019-06-15T02:04:40.374Z,17
2019-06-15T02:09:42.824Z,19
2019-06-15T02:14:45.279Z,19
2019-06-15T02:19:47.779Z,19
2019-06-15T02:24:50.185Z,20
2019-06-15T02:29:52.792Z,21
2019-06-15T02:34:55.154Z,24
2019-06-15T02:39:57.555Z,21
2019-06-15T02:45:00.017Z,20
2019-06-15T02:50:02.485Z,21
2019-06-15T02:55:04.954Z,20
2019-06-15T03:00:07.409Z,21
2019-06-15T03:05:09.863Z,21
2019-06-15T03:10:12.312Z,21
2019-06-15T03:15:14.809Z,21
2019-06-15T03:20:17.258Z,24
2019-06-15T03:25:19.905Z,22
2019-06-15T03:30:22.193Z,21
2019-06-15T03:35:24.676Z,21
2019-06-15T03:40:27.090Z,22
2019-06-15T03:45:29.529Z,22
2019-06-15T03:50:31.996Z,22
2019-06-15T03:55:34.434Z,24
2019-06-15T04:00:37.090Z,25
2019-06-15T04:05:39.397Z,24
2019-06-15T04:10:41.833Z,23
2019-06-15T04:15:44.270Z,24
2019-06-15T04:20:46.855Z,24
2019-06-15T04:25:49.296Z,24
2019-06-15T04:30:51.696Z,23
2019-06-15T04:35:54.249Z,23
2019-06-15T04:40:56.575Z,22
2019-06-15T04:45:59.055Z,22
2019-06-15T04:51:01.513Z,22
2019-06-15T04:56:03.958Z,23
2019-06-15T05:01:06.426Z,23
2019-06-15T05:06:08.905Z,23
2019-06-15T05:11:11.382Z,23
2019-06-15T05:16:13.805Z,22
2019-06-15T05:21:16.292Z,23
2019-06-15T05:26:18.725Z,25
2019-06-15T05:31:21.336Z,24
2019-06-15T05:36:23.625Z,24
2019-06-15T05:41:26.191Z,25
2019-06-15T05:46:28.634Z,28
2019-06-15T05:51:31.036Z,24
2019-06-15T05:56:33.629Z,25
2019-06-15T06:01:36.037Z,25
2019-06-15T06:06:38.573Z,27
2019-06-15T06:11:40.833Z,28
2019-06-15T06:16:43.310Z,29
2019-06-15T06:21:45.762Z,28
2019-06-15T06:26:48.234Z,28
2019-06-15T06:31:50.772Z,29
2019-06-15T06:36:53.169Z,28
2019-06-15T06:41:55.612Z,29
2019-06-15T06:46:58.112Z,27
2019-06-15T06:52:00.582Z,29
2019-06-15T06:57:02.953Z,27
2019-06-15T07:02:05.480Z,24
2019-06-15T07:07:07.952Z,28
2019-06-15T07:12:10.355Z,26
2019-06-15T07:17:12.832Z,26
2019-06-15T07:22:15.469Z,25
2019-06-15T07:27:17.751Z,23
2019-06-15T07:32:20.265Z,22
2019-06-15T07:37:22.769Z,21
2019-06-15T07:42:25.091Z,20
2019-06-15T07:47:27.682Z,19
2019-06-15T07:52:30.052Z,18
2019-06-15T07:57:32.518Z,19
2019-06-15T08:02:35.146Z,18
2019-06-15T08:07:37.537Z,19
2019-06-15T08:12:39.990Z,16
2019-06-15T08:17:45.331Z,17
2019-06-15T08:22:44.985Z,16
2019-06-15T08:32:49.743Z,18
2019-06-15T08:37:52.320Z,15
2019-06-15T08:42:54.717Z,16
2019-06-15T08:47:57.097Z,14
2019-06-15T08:52:59.568Z,15
2019-06-15T08:58:02.093Z,12
2019-06-15T09:03:04.476Z,12
2019-06-15T09:08:07.066Z,10
2019-06-15T09:13:09.846Z,12
2019-06-15T09:18:11.911Z,12
2019-06-15T09:23:14.392Z,13
2019-06-15T09:28:16.922Z,7
2019-06-15T09:33:19.274Z,10
2019-06-15T09:38:21.747Z,8
2019-06-15T09:43:24.183Z,7
2019-06-15T09:48:26.735Z,8
2019-06-15T09:53:29.098Z,7
2019-06-15T09:58:31.574Z,11
2019-06-15T10:03:34.132Z,11
2019-06-15T10:08:36.512Z,8
2019-06-15T10:13:38.961Z,6
2019-06-15T10:18:41.427Z,7
2019-06-15T10:23:44.043Z,7
2019-06-15T10:28:46.362Z,6
2019-06-15T10:33:48.816Z,11
2019-06-15T10:38:51.342Z,8
2019-06-15T10:43:53.767Z,9
2019-06-15T10:48:56.228Z,10
2019-06-15T10:53:59.871Z,8
2019-06-15T10:59:02.938Z,5
2019-06-15T11:04:03.637Z,10
2019-06-15T11:09:06.417Z,8
2019-06-15T11:14:08.604Z,9
2019-06-15T11:19:11.050Z,11
2019-06-15T11:24:13.516Z,14
2019-06-15T11:29:15.973Z,15
2019-06-15T11:34:18.488Z,11
2019-06-15T11:39:20.903Z,16
2019-06-15T11:44:23.471Z,12
2019-06-15T11:49:25.824Z,9
2019-06-15T11:54:28.408Z,7
2019-06-15T11:59:30.753Z,16
2019-06-15T12:04:33.225Z,9
2019-06-15T12:09:35.742Z,8
2019-06-15T12:14:38.208Z,9
2019-06-15T12:19:40.608Z,7
2019-06-15T12:24:43.123Z,8
2019-06-15T12:34:48.032Z,5
2019-06-15T12:39:50.442Z,5
2019-06-15T12:44:52.899Z,6
2019-06-15T12:49:55.353Z,8
2019-06-15T12:54:58.449Z,7
2019-06-15T13:00:00.275Z,6
2019-06-15T13:05:02.733Z,4
2019-06-15T13:10:05.209Z,5
2019-06-15T13:15:07.734Z,5
2019-06-15T13:20:10.240Z,7
2019-06-15T13:25:12.638Z,6
2019-06-15T13:30:15.065Z,7
2019-06-15T13:35:17.600Z,4
2019-06-15T13:40:19.958Z,4
2019-06-15T13:45:22.509Z,6
2019-06-15T13:50:24.890Z,8
2019-06-15T13:55:27.424Z,5
2019-06-15T14:00:29.806Z,3
2019-06-15T14:05:32.282Z,4
2019-06-15T14:10:34.773Z,4
2019-06-15T14:15:37.268Z,4
2019-06-15T14:20:40.089Z,4
2019-06-15T14:25:42.192Z,3
2019-06-15T14:30:44.553Z,7
2019-06-15T14:35:47.120Z,4
2019-06-15T14:40:49.520Z,4
2019-06-15T14:45:59.220Z,4
2019-06-15T14:50:54.558Z,4
2019-06-15T14:55:56.885Z,6
2019-06-15T15:00:59.314Z,3
2019-06-15T15:06:01.786Z,15
2019-06-15T15:11:06.445Z,5
2019-06-15T15:16:07.137Z,4
2019-06-15T15:21:09.170Z,5
2019-06-15T15:26:11.654Z,4
2019-06-15T15:31:16.863Z,8
2019-06-15T15:36:16.965Z,4
2019-06-15T15:41:19.066Z,4
2019-06-15T15:46:21.482Z,3
2019-06-15T15:51:26.006Z,4
2019-06-15T15:56:27.197Z,4
2019-06-15T16:01:28.960Z,4
2019-06-15T16:06:31.298Z,6
2019-06-15T16:11:33.788Z,4
2019-06-15T16:16:36.641Z,4
2019-06-15T16:21:38.680Z,3
2019-06-15T16:26:41.149Z,5
2019-06-15T16:36:46.933Z,4
2019-06-15T16:41:48.542Z,5
2019-06-15T16:46:51.041Z,2
2019-06-15T16:51:53.420Z,3
2019-06-15T16:56:55.923Z,3
2019-06-15T17:01:58.348Z,2
2019-06-15T17:07:00.805Z,4
2019-06-15T17:12:03.272Z,3
2019-06-15T17:17:05.799Z,5
2019-06-15T17:22:18.500Z,3
2019-06-15T17:27:10.646Z,2
2019-06-15T17:32:13.109Z,4
2019-06-15T17:37:17.200Z,2
2019-06-15T17:42:18.043Z,2
2019-06-15T17:47:20.536Z,3
2019-06-15T17:52:23.034Z,3
2019-06-15T17:57:27.384Z,4
2019-06-15T18:02:27.856Z,2
2019-06-15T18:07:30.333Z,3
2019-06-15T18:12:32.791Z,4
2019-06-15T18:17:36.948Z,3
2019-06-15T18:22:37.694Z,3
2019-06-15T18:27:40.198Z,3
2019-06-15T18:32:43.509Z,4
2019-06-15T18:37:46.164Z,3
2019-06-15T18:42:47.535Z,5
2019-06-15T18:47:50.002Z,7
2019-06-15T18:52:52.458Z,3
2019-06-15T18:57:56.751Z,3
2019-06-15T19:02:57.423Z,4
2019-06-15T19:13:02.285Z,3
2019-06-15T19:18:07.018Z,3
2019-06-15T19:23:07.367Z,4
2019-06-15T19:28:09.743Z,3
2019-06-15T19:33:12.119Z,2
2019-06-15T19:38:16.126Z,3
2019-06-15T19:43:17.039Z,2
2019-06-15T19:48:19.489Z,3
2019-06-15T19:53:21.939Z,4
2019-06-15T19:58:26.370Z,3
2019-06-15T20:03:27.459Z,3
2019-06-15T20:08:29.327Z,3
2019-06-15T20:13:31.808Z,3
2019-06-15T20:18:37.240Z,3
2019-06-15T20:23:37.395Z,1
2019-06-15T20:28:39.170Z,2
2019-06-15T20:33:41.656Z,4
2019-06-15T20:43:46.550Z,2
2019-06-15T20:48:49.019Z,5
2019-06-15T20:53:51.465Z,2
2019-06-15T20:58:56.964Z,2
2019-06-15T21:03:56.679Z,3
2019-06-15T21:08:58.852Z,2
2019-06-15T21:14:01.308Z,1
2019-06-15T21:19:05.949Z,3
2019-06-15T21:24:06.575Z,3
2019-06-15T21:29:08.737Z,4
2019-06-15T21:34:11.137Z,5
2019-06-15T21:39:13.743Z,3
2019-06-15T21:44:16.746Z,3
2019-06-15T21:49:18.517Z,3
2019-06-15T21:54:21.017Z,3
2019-06-15T21:59:25.975Z,4
2019-06-15T22:04:26.024Z,5
2019-06-15T22:09:28.365Z,5
2019-06-15T22:14:30.861Z,5
2019-06-15T22:19:33.268Z,5
2019-06-15T22:24:36.245Z,5
2019-06-15T22:29:38.193Z,5
2019-06-15T22:34:40.631Z,5
2019-06-15T22:39:43.087Z,6
2019-06-15T22:44:46.380Z,6
2019-06-15T22:49:48.135Z,6
2019-06-15T22:54:50.458Z,5
2019-06-15T22:59:52.982Z,6
2019-06-15T23:09:57.867Z,6
2019-06-15T23:15:00.331Z,7
2019-06-15T23:20:02.784Z,7
2019-06-15T23:25:06.030Z,7
2019-06-15T23:30:07.667Z,6
2019-06-15T23:35:10.136Z,6
2019-06-15T23:40:12.597Z,7
2019-06-15T23:45:16.091Z,6
2019-06-15T23:50:17.529Z,6
2019-06-15T23:55:19.980Z,6
